sensor_id;sensor_type;location;lat;lon;timestamp;P1;durP1;ratioP1;P2;durP2;ratioP2
54384;SDS011;40284;52.878;5.998;2023-05-07T00:02:15;23.20;;;20.05;;
54384;SDS011;40284;52.878;5.998;2023-05-07T00:04:41;25.60;;;19.67;;
54384;SDS011;40284;52.878;5.998;2023-05-07T00:07:09;24.13;;;20.08;;
54384;SDS011;40284;52.878;5.998;2023-05-07T00:09:35;27.55;;;20.35;;
54384;SDS011;40284;52.878;5.998;2023-05-07T00:12:01;23.75;;;20.52;;
54384;SDS011;40284;52.878;5.998;2023-05-07T00:14:27;25.52;;;21.58;;
54384;SDS011;40284;52.878;5.998;2023-05-07T00:16:54;26.70;;;21.60;;
54384;SDS011;40284;52.878;5.998;2023-05-07T00:19:20;26.08;;;21.60;;
54384;SDS011;40284;52.878;5.998;2023-05-07T00:21:47;30.23;;;24.48;;
54384;SDS011;40284;52.878;5.998;2023-05-07T00:24:13;25.75;;;22.02;;
54384;SDS011;40284;52.878;5.998;2023-05-07T00:26:39;24.58;;;20.75;;
54384;SDS011;40284;52.878;5.998;2023-05-07T00:29:05;29.38;;;23.40;;
54384;SDS011;40284;52.878;5.998;2023-05-07T00:31:31;24.70;;;19.90;;
54384;SDS011;40284;52.878;5.998;2023-05-07T00:33:57;25.67;;;21.05;;
54384;SDS011;40284;52.878;5.998;2023-05-07T00:36:23;24.00;;;20.52;;
54384;SDS011;40284;52.878;5.998;2023-05-07T00:38:50;24.77;;;21.05;;
54384;SDS011;40284;52.878;5.998;2023-05-07T00:41:16;23.83;;;20.42;;
54384;SDS011;40284;52.878;5.998;2023-05-07T00:43:42;24.05;;;20.20;;
54384;SDS011;40284;52.878;5.998;2023-05-07T00:46:08;29.95;;;21.75;;
54384;SDS011;40284;52.878;5.998;2023-05-07T00:48:35;26.05;;;21.63;;
54384;SDS011;40284;52.878;5.998;2023-05-07T00:51:01;24.20;;;21.52;;
54384;SDS011;40284;52.878;5.998;2023-05-07T00:53:27;27.67;;;23.13;;
54384;SDS011;40284;52.878;5.998;2023-05-07T00:55:53;26.02;;;23.27;;
54384;SDS011;40284;52.878;5.998;2023-05-07T00:58:21;28.52;;;24.92;;
54384;SDS011;40284;52.878;5.998;2023-05-07T01:00:47;28.67;;;23.13;;
54384;SDS011;40284;52.878;5.998;2023-05-07T01:03:13;26.85;;;23.40;;
54384;SDS011;40284;52.878;5.998;2023-05-07T01:05:39;28.55;;;24.50;;
54384;SDS011;40284;52.878;5.998;2023-05-07T01:08:05;29.00;;;24.38;;
54384;SDS011;40284;52.878;5.998;2023-05-07T01:10:31;30.80;;;25.50;;
54384;SDS011;40284;52.878;5.998;2023-05-07T01:12:58;29.38;;;24.42;;
54384;SDS011;40284;52.878;5.998;2023-05-07T01:15:25;27.38;;;24.35;;
54384;SDS011;40284;52.878;5.998;2023-05-07T01:17:51;31.30;;;23.38;;
54384;SDS011;40284;52.878;5.998;2023-05-07T01:20:18;31.10;;;23.75;;
54384;SDS011;40284;52.878;5.998;2023-05-07T01:22:44;29.33;;;22.50;;
54384;SDS011;40284;52.878;5.998;2023-05-07T01:25:11;26.52;;;22.38;;
54384;SDS011;40284;52.878;5.998;2023-05-07T01:27:37;28.75;;;23.08;;
54384;SDS011;40284;52.878;5.998;2023-05-07T01:30:03;27.95;;;22.20;;
54384;SDS011;40284;52.878;5.998;2023-05-07T01:32:38;28.50;;;23.33;;
54384;SDS011;40284;52.878;5.998;2023-05-07T01:35:07;28.45;;;21.90;;
54384;SDS011;40284;52.878;5.998;2023-05-07T01:37:33;23.63;;;19.98;;
54384;SDS011;40284;52.878;5.998;2023-05-07T01:40:00;25.92;;;20.92;;
54384;SDS011;40284;52.878;5.998;2023-05-07T01:42:27;22.08;;;19.67;;
54384;SDS011;40284;52.878;5.998;2023-05-07T01:44:53;24.65;;;19.13;;
54384;SDS011;40284;52.878;5.998;2023-05-07T01:47:19;26.52;;;21.08;;
54384;SDS011;40284;52.878;5.998;2023-05-07T01:49:46;25.55;;;19.33;;
54384;SDS011;40284;52.878;5.998;2023-05-07T01:52:12;25.48;;;18.98;;
54384;SDS011;40284;52.878;5.998;2023-05-07T01:54:38;21.77;;;19.20;;
54384;SDS011;40284;52.878;5.998;2023-05-07T01:57:04;23.70;;;19.23;;
54384;SDS011;40284;52.878;5.998;2023-05-07T01:59:30;24.45;;;19.02;;
54384;SDS011;40284;52.878;5.998;2023-05-07T02:01:56;24.92;;;20.00;;
54384;SDS011;40284;52.878;5.998;2023-05-07T02:04:22;21.10;;;18.85;;
54384;SDS011;40284;52.878;5.998;2023-05-07T02:06:49;22.80;;;19.20;;
54384;SDS011;40284;52.878;5.998;2023-05-07T02:09:15;21.52;;;17.98;;
54384;SDS011;40284;52.878;5.998;2023-05-07T02:11:41;22.08;;;16.75;;
54384;SDS011;40284;52.878;5.998;2023-05-07T02:14:07;21.48;;;17.15;;
54384;SDS011;40284;52.878;5.998;2023-05-07T02:16:33;23.80;;;16.83;;
54384;SDS011;40284;52.878;5.998;2023-05-07T02:19:00;23.00;;;17.42;;
54384;SDS011;40284;52.878;5.998;2023-05-07T02:21:26;22.63;;;17.98;;
54384;SDS011;40284;52.878;5.998;2023-05-07T02:23:52;21.13;;;17.45;;
54384;SDS011;40284;52.878;5.998;2023-05-07T02:26:18;21.30;;;16.25;;
54384;SDS011;40284;52.878;5.998;2023-05-07T02:28:44;22.75;;;16.92;;
54384;SDS011;40284;52.878;5.998;2023-05-07T02:31:10;19.17;;;16.70;;
54384;SDS011;40284;52.878;5.998;2023-05-07T02:33:36;16.67;;;14.95;;
54384;SDS011;40284;52.878;5.998;2023-05-07T02:36:08;23.05;;;16.85;;
54384;SDS011;40284;52.878;5.998;2023-05-07T02:38:35;20.85;;;17.13;;
54384;SDS011;40284;52.878;5.998;2023-05-07T02:41:01;20.45;;;16.98;;
54384;SDS011;40284;52.878;5.998;2023-05-07T02:43:27;22.00;;;16.30;;
54384;SDS011;40284;52.878;5.998;2023-05-07T02:46:07;20.98;;;18.10;;
54384;SDS011;40284;52.878;5.998;2023-05-07T02:48:33;21.67;;;18.95;;
54384;SDS011;40284;52.878;5.998;2023-05-07T02:50:59;22.60;;;18.77;;
54384;SDS011;40284;52.878;5.998;2023-05-07T02:53:26;24.38;;;18.63;;
54384;SDS011;40284;52.878;5.998;2023-05-07T02:55:55;25.40;;;20.98;;
54384;SDS011;40284;52.878;5.998;2023-05-07T02:58:22;25.27;;;19.25;;
54384;SDS011;40284;52.878;5.998;2023-05-07T03:00:48;25.23;;;20.52;;
54384;SDS011;40284;52.878;5.998;2023-05-07T03:03:14;25.35;;;20.48;;
54384;SDS011;40284;52.878;5.998;2023-05-07T03:05:40;24.25;;;20.25;;
54384;SDS011;40284;52.878;5.998;2023-05-07T03:08:07;29.17;;;20.23;;
54384;SDS011;40284;52.878;5.998;2023-05-07T03:10:33;25.80;;;20.30;;
54384;SDS011;40284;52.878;5.998;2023-05-07T03:13:00;31.30;;;21.17;;
54384;SDS011;40284;52.878;5.998;2023-05-07T03:15:26;27.15;;;21.80;;
54384;SDS011;40284;52.878;5.998;2023-05-07T03:17:52;26.80;;;21.80;;
54384;SDS011;40284;52.878;5.998;2023-05-07T03:20:18;28.38;;;22.55;;
54384;SDS011;40284;52.878;5.998;2023-05-07T03:22:44;24.17;;;20.90;;
54384;SDS011;40284;52.878;5.998;2023-05-07T03:25:10;25.30;;;21.58;;
54384;SDS011;40284;52.878;5.998;2023-05-07T03:27:36;25.77;;;21.25;;
54384;SDS011;40284;52.878;5.998;2023-05-07T03:30:03;29.35;;;22.98;;
54384;SDS011;40284;52.878;5.998;2023-05-07T03:32:29;25.10;;;20.67;;
54384;SDS011;40284;52.878;5.998;2023-05-07T03:34:55;29.38;;;22.70;;
54384;SDS011;40284;52.878;5.998;2023-05-07T03:37:22;28.95;;;23.73;;
54384;SDS011;40284;52.878;5.998;2023-05-07T03:39:48;24.95;;;22.23;;
54384;SDS011;40284;52.878;5.998;2023-05-07T03:42:14;25.65;;;22.48;;
54384;SDS011;40284;52.878;5.998;2023-05-07T03:44:40;29.70;;;22.65;;
54384;SDS011;40284;52.878;5.998;2023-05-07T03:47:06;25.33;;;21.67;;
54384;SDS011;40284;52.878;5.998;2023-05-07T03:49:32;30.85;;;23.75;;
54384;SDS011;40284;52.878;5.998;2023-05-07T03:51:59;27.63;;;22.92;;
54384;SDS011;40284;52.878;5.998;2023-05-07T03:54:25;28.77;;;23.25;;
54384;SDS011;40284;52.878;5.998;2023-05-07T03:56:51;31.38;;;23.77;;
54384;SDS011;40284;52.878;5.998;2023-05-07T03:59:17;27.58;;;23.63;;
54384;SDS011;40284;52.878;5.998;2023-05-07T04:01:43;29.33;;;24.15;;
54384;SDS011;40284;52.878;5.998;2023-05-07T04:04:09;32.35;;;23.27;;
54384;SDS011;40284;52.878;5.998;2023-05-07T04:06:35;29.30;;;23.30;;
54384;SDS011;40284;52.878;5.998;2023-05-07T04:09:02;31.30;;;24.55;;
54384;SDS011;40284;52.878;5.998;2023-05-07T04:11:28;30.23;;;24.08;;
54384;SDS011;40284;52.878;5.998;2023-05-07T04:13:54;30.45;;;24.92;;
54384;SDS011;40284;52.878;5.998;2023-05-07T04:16:20;31.35;;;24.40;;
54384;SDS011;40284;52.878;5.998;2023-05-07T04:18:46;30.80;;;25.88;;
54384;SDS011;40284;52.878;5.998;2023-05-07T04:21:19;34.30;;;25.98;;
54384;SDS011;40284;52.878;5.998;2023-05-07T04:23:46;34.67;;;27.45;;
54384;SDS011;40284;52.878;5.998;2023-05-07T04:26:12;31.00;;;25.63;;
54384;SDS011;40284;52.878;5.998;2023-05-07T04:28:39;42.33;;;32.83;;
54384;SDS011;40284;52.878;5.998;2023-05-07T04:31:05;40.78;;;29.65;;
54384;SDS011;40284;52.878;5.998;2023-05-07T04:33:32;34.35;;;26.85;;
54384;SDS011;40284;52.878;5.998;2023-05-07T04:35:58;34.95;;;26.80;;
54384;SDS011;40284;52.878;5.998;2023-05-07T04:38:28;44.60;;;33.38;;
54384;SDS011;40284;52.878;5.998;2023-05-07T04:40:55;38.17;;;29.17;;
54384;SDS011;40284;52.878;5.998;2023-05-07T04:43:22;35.05;;;25.92;;
54384;SDS011;40284;52.878;5.998;2023-05-07T04:45:49;35.83;;;28.23;;
54384;SDS011;40284;52.878;5.998;2023-05-07T04:48:15;38.08;;;30.20;;
54384;SDS011;40284;52.878;5.998;2023-05-07T04:50:44;36.42;;;27.85;;
54384;SDS011;40284;52.878;5.998;2023-05-07T04:53:10;35.53;;;28.38;;
54384;SDS011;40284;52.878;5.998;2023-05-07T04:55:36;39.50;;;29.23;;
54384;SDS011;40284;52.878;5.998;2023-05-07T04:58:02;43.55;;;29.90;;
54384;SDS011;40284;52.878;5.998;2023-05-07T05:00:30;37.28;;;27.80;;
54384;SDS011;40284;52.878;5.998;2023-05-07T05:02:56;36.83;;;29.50;;
54384;SDS011;40284;52.878;5.998;2023-05-07T05:05:22;33.97;;;28.60;;
54384;SDS011;40284;52.878;5.998;2023-05-07T05:07:48;38.78;;;28.73;;
54384;SDS011;40284;52.878;5.998;2023-05-07T05:10:16;41.20;;;30.55;;
54384;SDS011;40284;52.878;5.998;2023-05-07T05:12:42;38.00;;;29.77;;
54384;SDS011;40284;52.878;5.998;2023-05-07T05:15:10;36.80;;;29.70;;
54384;SDS011;40284;52.878;5.998;2023-05-07T05:17:36;41.65;;;30.00;;
54384;SDS011;40284;52.878;5.998;2023-05-07T05:20:03;36.70;;;31.05;;
54384;SDS011;40284;52.878;5.998;2023-05-07T05:22:29;38.22;;;29.48;;
54384;SDS011;40284;52.878;5.998;2023-05-07T05:24:56;41.55;;;30.65;;
54384;SDS011;40284;52.878;5.998;2023-05-07T05:27:22;39.08;;;31.08;;
54384;SDS011;40284;52.878;5.998;2023-05-07T05:29:48;37.17;;;29.08;;
54384;SDS011;40284;52.878;5.998;2023-05-07T05:32:14;38.42;;;31.63;;
54384;SDS011;40284;52.878;5.998;2023-05-07T05:34:40;37.47;;;31.10;;
54384;SDS011;40284;52.878;5.998;2023-05-07T05:37:07;42.10;;;32.83;;
54384;SDS011;40284;52.878;5.998;2023-05-07T05:39:33;40.08;;;30.50;;
54384;SDS011;40284;52.878;5.998;2023-05-07T05:41:59;40.08;;;30.67;;
54384;SDS011;40284;52.878;5.998;2023-05-07T05:44:25;38.58;;;31.77;;
54384;SDS011;40284;52.878;5.998;2023-05-07T05:46:51;39.08;;;30.13;;
54384;SDS011;40284;52.878;5.998;2023-05-07T05:49:20;39.10;;;31.23;;
54384;SDS011;40284;52.878;5.998;2023-05-07T05:51:46;41.80;;;33.05;;
54384;SDS011;40284;52.878;5.998;2023-05-07T05:54:12;39.38;;;31.23;;
54384;SDS011;40284;52.878;5.998;2023-05-07T05:56:38;38.20;;;31.58;;
54384;SDS011;40284;52.878;5.998;2023-05-07T05:59:04;42.60;;;32.50;;
54384;SDS011;40284;52.878;5.998;2023-05-07T06:01:31;41.17;;;31.02;;
54384;SDS011;40284;52.878;5.998;2023-05-07T06:03:57;37.47;;;30.40;;
54384;SDS011;40284;52.878;5.998;2023-05-07T06:06:23;39.42;;;31.55;;
54384;SDS011;40284;52.878;5.998;2023-05-07T06:08:49;40.25;;;29.58;;
54384;SDS011;40284;52.878;5.998;2023-05-07T06:11:15;38.20;;;31.52;;
54384;SDS011;40284;52.878;5.998;2023-05-07T06:13:41;38.40;;;31.58;;
54384;SDS011;40284;52.878;5.998;2023-05-07T06:16:07;40.92;;;31.77;;
54384;SDS011;40284;52.878;5.998;2023-05-07T06:18:33;39.47;;;30.77;;
54384;SDS011;40284;52.878;5.998;2023-05-07T06:21:01;37.35;;;30.45;;
54384;SDS011;40284;52.878;5.998;2023-05-07T06:23:27;39.72;;;30.45;;
54384;SDS011;40284;52.878;5.998;2023-05-07T06:25:53;35.47;;;28.92;;
54384;SDS011;40284;52.878;5.998;2023-05-07T06:28:19;34.85;;;28.38;;
54384;SDS011;40284;52.878;5.998;2023-05-07T06:30:45;36.15;;;29.73;;
54384;SDS011;40284;52.878;5.998;2023-05-07T06:33:12;33.97;;;27.40;;
54384;SDS011;40284;52.878;5.998;2023-05-07T06:35:38;39.17;;;29.08;;
54384;SDS011;40284;52.878;5.998;2023-05-07T06:38:04;39.60;;;28.05;;
54384;SDS011;40284;52.878;5.998;2023-05-07T06:40:30;37.10;;;28.20;;
54384;SDS011;40284;52.878;5.998;2023-05-07T06:42:56;35.38;;;29.33;;
54384;SDS011;40284;52.878;5.998;2023-05-07T06:45:22;34.53;;;28.85;;
54384;SDS011;40284;52.878;5.998;2023-05-07T06:47:50;33.25;;;27.08;;
54384;SDS011;40284;52.878;5.998;2023-05-07T06:50:16;34.78;;;27.58;;
54384;SDS011;40284;52.878;5.998;2023-05-07T06:52:42;31.83;;;27.23;;
54384;SDS011;40284;52.878;5.998;2023-05-07T06:55:08;33.00;;;26.42;;
54384;SDS011;40284;52.878;5.998;2023-05-07T06:57:34;33.38;;;27.90;;
54384;SDS011;40284;52.878;5.998;2023-05-07T07:00:01;31.33;;;24.08;;
54384;SDS011;40284;52.878;5.998;2023-05-07T07:02:27;30.77;;;25.40;;
54384;SDS011;40284;52.878;5.998;2023-05-07T07:04:53;32.55;;;26.90;;
54384;SDS011;40284;52.878;5.998;2023-05-07T07:07:19;32.03;;;26.52;;
54384;SDS011;40284;52.878;5.998;2023-05-07T07:09:45;28.77;;;25.42;;
54384;SDS011;40284;52.878;5.998;2023-05-07T07:12:11;35.53;;;25.55;;
54384;SDS011;40284;52.878;5.998;2023-05-07T07:14:37;28.98;;;24.73;;
54384;SDS011;40284;52.878;5.998;2023-05-07T07:17:03;29.60;;;25.48;;
54384;SDS011;40284;52.878;5.998;2023-05-07T07:19:30;33.92;;;26.02;;
54384;SDS011;40284;52.878;5.998;2023-05-07T07:21:56;27.00;;;23.95;;
54384;SDS011;40284;52.878;5.998;2023-05-07T07:24:22;30.23;;;25.70;;
54384;SDS011;40284;52.878;5.998;2023-05-07T07:26:48;27.45;;;23.10;;
54384;SDS011;40284;52.878;5.998;2023-05-07T07:29:14;30.27;;;25.42;;
54384;SDS011;40284;52.878;5.998;2023-05-07T07:31:40;31.73;;;24.92;;
54384;SDS011;40284;52.878;5.998;2023-05-07T07:34:06;30.45;;;24.10;;
54384;SDS011;40284;52.878;5.998;2023-05-07T07:36:32;26.75;;;23.90;;
54384;SDS011;40284;52.878;5.998;2023-05-07T07:38:58;27.80;;;24.15;;
54384;SDS011;40284;52.878;5.998;2023-05-07T07:41:24;29.63;;;24.80;;
54384;SDS011;40284;52.878;5.998;2023-05-07T07:43:50;31.05;;;25.10;;
54384;SDS011;40284;52.878;5.998;2023-05-07T07:46:17;28.30;;;25.08;;
54384;SDS011;40284;52.878;5.998;2023-05-07T07:48:43;28.13;;;23.83;;
54384;SDS011;40284;52.878;5.998;2023-05-07T07:51:11;28.33;;;23.92;;
54384;SDS011;40284;52.878;5.998;2023-05-07T07:53:37;29.90;;;24.60;;
54384;SDS011;40284;52.878;5.998;2023-05-07T07:56:03;27.83;;;24.25;;
54384;SDS011;40284;52.878;5.998;2023-05-07T07:58:29;27.10;;;22.55;;
54384;SDS011;40284;52.878;5.998;2023-05-07T08:00:55;27.00;;;23.60;;
54384;SDS011;40284;52.878;5.998;2023-05-07T08:03:21;27.40;;;24.30;;
54384;SDS011;40284;52.878;5.998;2023-05-07T08:05:47;27.17;;;22.52;;
54384;SDS011;40284;52.878;5.998;2023-05-07T08:08:16;27.67;;;24.17;;
54384;SDS011;40284;52.878;5.998;2023-05-07T08:10:42;28.65;;;24.08;;
54384;SDS011;40284;52.878;5.998;2023-05-07T08:13:08;27.55;;;23.52;;
54384;SDS011;40284;52.878;5.998;2023-05-07T08:15:34;30.15;;;23.73;;
54384;SDS011;40284;52.878;5.998;2023-05-07T08:18:01;27.38;;;22.50;;
54384;SDS011;40284;52.878;5.998;2023-05-07T08:20:28;27.27;;;22.73;;
54384;SDS011;40284;52.878;5.998;2023-05-07T08:22:54;26.08;;;22.45;;
54384;SDS011;40284;52.878;5.998;2023-05-07T08:25:20;29.08;;;24.38;;
54384;SDS011;40284;52.878;5.998;2023-05-07T08:27:46;29.52;;;24.45;;
54384;SDS011;40284;52.878;5.998;2023-05-07T08:30:13;25.35;;;22.58;;
54384;SDS011;40284;52.878;5.998;2023-05-07T08:32:39;26.55;;;23.73;;
54384;SDS011;40284;52.878;5.998;2023-05-07T08:35:05;29.73;;;25.35;;
54384;SDS011;40284;52.878;5.998;2023-05-07T08:37:31;27.00;;;24.17;;
54384;SDS011;40284;52.878;5.998;2023-05-07T08:39:57;27.23;;;23.73;;
54384;SDS011;40284;52.878;5.998;2023-05-07T08:42:23;30.58;;;23.35;;
54384;SDS011;40284;52.878;5.998;2023-05-07T08:44:51;27.98;;;23.67;;
54384;SDS011;40284;52.878;5.998;2023-05-07T08:47:20;27.15;;;23.85;;
54384;SDS011;40284;52.878;5.998;2023-05-07T08:49:48;24.75;;;22.05;;
54384;SDS011;40284;52.878;5.998;2023-05-07T08:52:15;26.40;;;22.65;;
54384;SDS011;40284;52.878;5.998;2023-05-07T08:54:41;30.00;;;24.92;;
54384;SDS011;40284;52.878;5.998;2023-05-07T08:57:07;26.42;;;23.08;;
54384;SDS011;40284;52.878;5.998;2023-05-07T08:59:34;27.55;;;23.10;;
54384;SDS011;40284;52.878;5.998;2023-05-07T09:02:01;30.02;;;25.45;;
54384;SDS011;40284;52.878;5.998;2023-05-07T09:04:27;29.05;;;24.58;;
54384;SDS011;40284;52.878;5.998;2023-05-07T09:06:54;27.67;;;24.33;;
54384;SDS011;40284;52.878;5.998;2023-05-07T09:09:21;28.80;;;23.95;;
54384;SDS011;40284;52.878;5.998;2023-05-07T09:11:47;27.83;;;23.83;;
54384;SDS011;40284;52.878;5.998;2023-05-07T09:14:13;27.60;;;24.10;;
54384;SDS011;40284;52.878;5.998;2023-05-07T09:16:39;29.10;;;23.95;;
54384;SDS011;40284;52.878;5.998;2023-05-07T09:19:05;29.77;;;25.52;;
54384;SDS011;40284;52.878;5.998;2023-05-07T09:21:32;29.05;;;24.63;;
54384;SDS011;40284;52.878;5.998;2023-05-07T09:23:58;27.65;;;24.02;;
54384;SDS011;40284;52.878;5.998;2023-05-07T09:26:24;28.05;;;25.00;;
54384;SDS011;40284;52.878;5.998;2023-05-07T09:28:51;28.98;;;24.80;;
54384;SDS011;40284;52.878;5.998;2023-05-07T09:31:17;29.83;;;25.30;;
54384;SDS011;40284;52.878;5.998;2023-05-07T09:33:43;26.13;;;22.88;;
54384;SDS011;40284;52.878;5.998;2023-05-07T09:36:09;29.17;;;25.13;;
54384;SDS011;40284;52.878;5.998;2023-05-07T09:38:36;27.63;;;23.40;;
54384;SDS011;40284;52.878;5.998;2023-05-07T09:43:32;28.38;;;25.27;;
54384;SDS011;40284;52.878;5.998;2023-05-07T09:46:01;30.13;;;25.90;;
54384;SDS011;40284;52.878;5.998;2023-05-07T09:48:28;31.10;;;25.88;;
54384;SDS011;40284;52.878;5.998;2023-05-07T09:50:55;29.00;;;24.85;;
54384;SDS011;40284;52.878;5.998;2023-05-07T09:53:25;29.45;;;24.10;;
54384;SDS011;40284;52.878;5.998;2023-05-07T09:55:51;30.17;;;25.90;;
54384;SDS011;40284;52.878;5.998;2023-05-07T09:58:18;30.77;;;25.58;;
54384;SDS011;40284;52.878;5.998;2023-05-07T10:00:44;31.13;;;26.13;;
54384;SDS011;40284;52.878;5.998;2023-05-07T10:03:11;29.60;;;25.27;;
54384;SDS011;40284;52.878;5.998;2023-05-07T10:05:40;30.80;;;25.58;;
54384;SDS011;40284;52.878;5.998;2023-05-07T10:08:06;27.75;;;23.70;;
54384;SDS011;40284;52.878;5.998;2023-05-07T10:10:34;29.00;;;24.52;;
54384;SDS011;40284;52.878;5.998;2023-05-07T10:13:01;30.73;;;25.00;;
54384;SDS011;40284;52.878;5.998;2023-05-07T10:15:30;28.25;;;23.42;;
54384;SDS011;40284;52.878;5.998;2023-05-07T10:17:57;24.63;;;21.95;;
54384;SDS011;40284;52.878;5.998;2023-05-07T10:20:23;28.80;;;23.63;;
54384;SDS011;40284;52.878;5.998;2023-05-07T10:22:50;28.73;;;24.63;;
54384;SDS011;40284;52.878;5.998;2023-05-07T10:25:21;29.92;;;25.38;;
54384;SDS011;40284;52.878;5.998;2023-05-07T10:27:49;30.38;;;26.17;;
54384;SDS011;40284;52.878;5.998;2023-05-07T10:30:26;30.45;;;25.30;;
54384;SDS011;40284;52.878;5.998;2023-05-07T10:32:53;29.25;;;25.15;;
54384;SDS011;40284;52.878;5.998;2023-05-07T10:35:21;26.45;;;23.30;;
54384;SDS011;40284;52.878;5.998;2023-05-07T10:37:48;29.33;;;25.48;;
54384;SDS011;40284;52.878;5.998;2023-05-07T10:40:15;29.63;;;24.80;;
54384;SDS011;40284;52.878;5.998;2023-05-07T10:42:55;28.50;;;24.98;;
54384;SDS011;40284;52.878;5.998;2023-05-07T10:45:22;26.65;;;23.77;;
54384;SDS011;40284;52.878;5.998;2023-05-07T10:50:33;26.35;;;22.98;;
54384;SDS011;40284;52.878;5.998;2023-05-07T10:55:47;28.67;;;24.88;;
54384;SDS011;40284;52.878;5.998;2023-05-07T10:58:34;32.10;;;24.73;;
54384;SDS011;40284;52.878;5.998;2023-05-07T11:01:02;30.42;;;24.38;;
54384;SDS011;40284;52.878;5.998;2023-05-07T11:03:29;28.98;;;24.55;;
54384;SDS011;40284;52.878;5.998;2023-05-07T11:06:16;28.20;;;25.10;;
54384;SDS011;40284;52.878;5.998;2023-05-07T11:09:00;35.80;;;26.23;;
54384;SDS011;40284;52.878;5.998;2023-05-07T11:11:43;30.50;;;24.95;;
54384;SDS011;40284;52.878;5.998;2023-05-07T11:14:10;28.40;;;22.85;;
54384;SDS011;40284;52.878;5.998;2023-05-07T11:16:36;29.75;;;24.73;;
54384;SDS011;40284;52.878;5.998;2023-05-07T11:19:03;24.52;;;21.98;;
54384;SDS011;40284;52.878;5.998;2023-05-07T11:21:39;30.40;;;25.70;;
54384;SDS011;40284;52.878;5.998;2023-05-07T11:24:06;33.45;;;27.17;;
54384;SDS011;40284;52.878;5.998;2023-05-07T11:26:45;40.55;;;29.30;;
54384;SDS011;40284;52.878;5.998;2023-05-07T11:29:22;27.15;;;23.27;;
54384;SDS011;40284;52.878;5.998;2023-05-07T11:31:49;36.70;;;29.13;;
54384;SDS011;40284;52.878;5.998;2023-05-07T11:34:19;27.23;;;23.60;;
54384;SDS011;40284;52.878;5.998;2023-05-07T11:36:46;32.33;;;26.10;;
54384;SDS011;40284;52.878;5.998;2023-05-07T11:41:51;30.75;;;24.98;;
54384;SDS011;40284;52.878;5.998;2023-05-07T11:44:17;28.65;;;23.88;;
54384;SDS011;40284;52.878;5.998;2023-05-07T11:46:43;30.30;;;23.95;;
54384;SDS011;40284;52.878;5.998;2023-05-07T11:49:10;30.73;;;25.38;;
54384;SDS011;40284;52.878;5.998;2023-05-07T11:51:36;27.35;;;23.48;;
54384;SDS011;40284;52.878;5.998;2023-05-07T11:54:05;29.42;;;24.63;;
54384;SDS011;40284;52.878;5.998;2023-05-07T11:56:34;32.78;;;25.27;;
54384;SDS011;40284;52.878;5.998;2023-05-07T11:59:04;33.97;;;25.88;;
54384;SDS011;40284;52.878;5.998;2023-05-07T12:01:31;37.78;;;28.50;;
54384;SDS011;40284;52.878;5.998;2023-05-07T12:03:57;47.03;;;31.33;;
54384;SDS011;40284;52.878;5.998;2023-05-07T12:06:23;52.05;;;33.33;;
54384;SDS011;40284;52.878;5.998;2023-05-07T12:08:49;37.85;;;27.17;;
54384;SDS011;40284;52.878;5.998;2023-05-07T12:11:16;47.30;;;31.63;;
54384;SDS011;40284;52.878;5.998;2023-05-07T12:13:47;28.95;;;23.92;;
54384;SDS011;40284;52.878;5.998;2023-05-07T12:16:13;35.92;;;26.00;;
54384;SDS011;40284;52.878;5.998;2023-05-07T12:18:39;23.15;;;20.00;;
54384;SDS011;40284;52.878;5.998;2023-05-07T12:21:06;26.52;;;20.23;;
54384;SDS011;40284;52.878;5.998;2023-05-07T12:23:33;29.98;;;26.73;;
54384;SDS011;40284;52.878;5.998;2023-05-07T12:25:59;22.85;;;20.00;;
54384;SDS011;40284;52.878;5.998;2023-05-07T12:28:26;22.42;;;19.48;;
54384;SDS011;40284;52.878;5.998;2023-05-07T12:30:52;21.75;;;19.45;;
54384;SDS011;40284;52.878;5.998;2023-05-07T12:33:19;22.48;;;20.15;;
54384;SDS011;40284;52.878;5.998;2023-05-07T12:35:48;24.25;;;21.58;;
54384;SDS011;40284;52.878;5.998;2023-05-07T12:38:15;22.67;;;20.27;;
54384;SDS011;40284;52.878;5.998;2023-05-07T12:40:43;22.73;;;19.83;;
54384;SDS011;40284;52.878;5.998;2023-05-07T12:43:25;23.35;;;20.88;;
54384;SDS011;40284;52.878;5.998;2023-05-07T12:45:55;24.10;;;20.40;;
54384;SDS011;40284;52.878;5.998;2023-05-07T12:48:22;21.27;;;19.08;;
54384;SDS011;40284;52.878;5.998;2023-05-07T12:50:53;21.20;;;18.98;;
54384;SDS011;40284;52.878;5.998;2023-05-07T12:53:23;19.15;;;17.15;;
54384;SDS011;40284;52.878;5.998;2023-05-07T12:55:53;19.27;;;17.27;;
54384;SDS011;40284;52.878;5.998;2023-05-07T12:58:20;20.38;;;18.25;;
54384;SDS011;40284;52.878;5.998;2023-05-07T13:00:50;18.52;;;16.52;;
54384;SDS011;40284;52.878;5.998;2023-05-07T13:03:32;20.73;;;17.52;;
54384;SDS011;40284;52.878;5.998;2023-05-07T13:06:00;18.85;;;16.95;;
54384;SDS011;40284;52.878;5.998;2023-05-07T13:08:33;19.77;;;16.05;;
54384;SDS011;40284;52.878;5.998;2023-05-07T13:11:00;16.58;;;14.75;;
54384;SDS011;40284;52.878;5.998;2023-05-07T13:13:30;20.02;;;17.92;;
54384;SDS011;40284;52.878;5.998;2023-05-07T13:15:56;19.42;;;17.40;;
54384;SDS011;40284;52.878;5.998;2023-05-07T13:18:24;20.23;;;18.02;;
54384;SDS011;40284;52.878;5.998;2023-05-07T13:20:51;19.02;;;17.05;;
54384;SDS011;40284;52.878;5.998;2023-05-07T13:23:17;16.42;;;14.65;;
54384;SDS011;40284;52.878;5.998;2023-05-07T13:25:43;19.85;;;16.00;;
54384;SDS011;40284;52.878;5.998;2023-05-07T13:28:10;16.08;;;14.32;;
54384;SDS011;40284;52.878;5.998;2023-05-07T13:30:36;16.95;;;14.48;;
54384;SDS011;40284;52.878;5.998;2023-05-07T13:33:02;16.02;;;13.77;;
54384;SDS011;40284;52.878;5.998;2023-05-07T13:35:28;14.90;;;12.50;;
54384;SDS011;40284;52.878;5.998;2023-05-07T13:37:55;13.75;;;12.07;;
54384;SDS011;40284;52.878;5.998;2023-05-07T13:40:21;15.70;;;13.13;;
54384;SDS011;40284;52.878;5.998;2023-05-07T13:42:48;15.65;;;13.25;;
54384;SDS011;40284;52.878;5.998;2023-05-07T13:45:14;17.20;;;15.50;;
54384;SDS011;40284;52.878;5.998;2023-05-07T13:47:44;16.83;;;13.73;;
54384;SDS011;40284;52.878;5.998;2023-05-07T13:50:10;14.98;;;13.45;;
54384;SDS011;40284;52.878;5.998;2023-05-07T13:52:39;15.73;;;13.57;;
54384;SDS011;40284;52.878;5.998;2023-05-07T13:55:06;16.55;;;14.27;;
54384;SDS011;40284;52.878;5.998;2023-05-07T13:57:32;15.30;;;13.55;;
54384;SDS011;40284;52.878;5.998;2023-05-07T13:59:58;15.35;;;13.77;;
54384;SDS011;40284;52.878;5.998;2023-05-07T14:02:24;17.30;;;13.75;;
54384;SDS011;40284;52.878;5.998;2023-05-07T14:04:51;14.73;;;12.88;;
54384;SDS011;40284;52.878;5.998;2023-05-07T14:07:17;13.80;;;12.38;;
54384;SDS011;40284;52.878;5.998;2023-05-07T14:09:43;14.48;;;12.25;;
54384;SDS011;40284;52.878;5.998;2023-05-07T14:12:10;13.15;;;11.85;;
54384;SDS011;40284;52.878;5.998;2023-05-07T14:14:36;15.10;;;12.98;;
54384;SDS011;40284;52.878;5.998;2023-05-07T14:17:02;15.05;;;12.82;;
54384;SDS011;40284;52.878;5.998;2023-05-07T14:19:29;15.68;;;14.07;;
54384;SDS011;40284;52.878;5.998;2023-05-07T14:21:55;16.95;;;14.30;;
54384;SDS011;40284;52.878;5.998;2023-05-07T14:24:21;19.13;;;14.43;;
54384;SDS011;40284;52.878;5.998;2023-05-07T14:26:47;16.75;;;14.32;;
54384;SDS011;40284;52.878;5.998;2023-05-07T14:29:13;15.63;;;13.30;;
54384;SDS011;40284;52.878;5.998;2023-05-07T14:31:44;15.77;;;12.98;;